createdAt,value
2023-03-25T00:01:58.646Z,43.96
2023-03-25T00:04:27.576Z,44.60
2023-03-25T00:06:56.377Z,42.49
2023-03-25T00:09:24.076Z,41.48
2023-03-25T00:11:51.432Z,44.98
2023-03-25T00:14:19.732Z,42.20
2023-03-25T00:16:48.889Z,42.30
2023-03-25T00:19:16.352Z,40.92
2023-03-25T00:21:46.370Z,40.33
2023-03-25T00:24:18.134Z,40.13
2023-03-25T00:26:46.402Z,40.46
2023-03-25T00:29:13.771Z,41.45
2023-03-25T00:31:41.260Z,40.82
2023-03-25T00:34:09.232Z,40.33
2023-03-25T00:36:38.003Z,39.68
2023-03-25T00:39:06.032Z,39.94
2023-03-25T00:41:35.990Z,40.31
2023-03-25T00:44:05.000Z,40.55
2023-03-25T00:46:33.904Z,39.80
2023-03-25T00:49:01.502Z,39.98
2023-03-25T00:51:31.459Z,40.90
2023-03-25T00:54:02.432Z,39.91
2023-03-25T00:56:30.203Z,40.20
2023-03-25T00:58:57.917Z,40.37
2023-03-25T01:01:29.425Z,39.74
2023-03-25T01:03:58.923Z,41.54
2023-03-25T01:06:32.674Z,40.82
2023-03-25T01:09:00.981Z,40.72
2023-03-25T01:11:35.264Z,42.57
2023-03-25T01:14:03.429Z,40.38
2023-03-25T01:16:30.928Z,40.72
2023-03-25T01:18:58.361Z,41.99
2023-03-25T01:21:26.185Z,40.95
2023-03-25T01:23:53.559Z,41.16
2023-03-25T01:26:20.883Z,40.75
2023-03-25T01:28:48.119Z,40.75
2023-03-25T01:31:16.136Z,41.72
2023-03-25T01:33:43.448Z,40.97
2023-03-25T01:36:13.193Z,40.89
2023-03-25T01:38:41.236Z,42.36
2023-03-25T01:41:09.200Z,42.28
2023-03-25T01:43:36.942Z,42.18
2023-03-25T01:46:16.428Z,41.06
2023-03-25T01:49:28.214Z,41.08
2023-03-25T01:52:03.587Z,41.38
2023-03-25T01:54:31.237Z,41.53
2023-03-25T01:57:02.273Z,41.40
2023-03-25T02:07:20.353Z,41.29
2023-03-25T02:09:47.742Z,41.31
2023-03-25T02:12:15.053Z,41.45
2023-03-25T02:14:43.689Z,41.24
2023-03-25T02:17:53.926Z,42.04
2023-03-25T02:20:39.445Z,42.03
2023-03-25T02:23:12.946Z,42.23
2023-03-25T02:37:34.241Z,41.90
2023-03-25T02:40:08.296Z,41.97
2023-03-25T02:42:41.515Z,42.29
2023-03-25T02:45:47.283Z,41.98
2023-03-25T02:48:33.604Z,41.89
2023-03-25T02:51:03.330Z,42.08
2023-03-25T02:53:34.054Z,42.20
2023-03-25T02:56:03.680Z,41.25
2023-03-25T02:59:02.711Z,42.11
2023-03-25T03:01:30.111Z,41.27
2023-03-25T03:03:57.384Z,41.33
2023-03-25T03:06:25.808Z,40.54
2023-03-25T03:09:16.631Z,40.67
2023-03-25T03:11:52.346Z,40.31
2023-03-25T03:14:31.976Z,40.32
2023-03-25T03:17:01.034Z,39.88
2023-03-25T03:19:51.119Z,39.94
2023-03-25T03:22:34.443Z,39.98
2023-03-25T03:25:11.367Z,39.30
2023-03-25T03:27:47.277Z,39.05
2023-03-25T03:30:34.749Z,39.11
2023-03-25T03:33:02.253Z,38.57
2023-03-25T03:35:38.574Z,38.71
2023-03-25T03:38:09.856Z,38.68
2023-03-25T03:40:39.448Z,38.46
2023-03-25T03:43:14.138Z,38.05
2023-03-25T03:45:44.892Z,38.08
2023-03-25T03:48:17.950Z,37.98
2023-03-25T03:50:50.852Z,37.72
2023-03-25T03:53:23.745Z,37.80
2023-03-25T03:55:53.730Z,37.35
2023-03-25T03:58:30.302Z,37.26
2023-03-25T04:01:12.181Z,36.40
2023-03-25T04:03:42.442Z,36.65
2023-03-25T04:06:18.346Z,35.66
2023-03-25T04:09:05.862Z,34.65
2023-03-25T04:11:40.809Z,35.90
2023-03-25T04:14:09.516Z,35.08
2023-03-25T04:16:37.952Z,36.01
2023-03-25T04:19:05.721Z,35.83
2023-03-25T04:21:33.788Z,35.66
2023-03-25T04:24:01.925Z,35.34
2023-03-25T04:26:34.348Z,34.96
2023-03-25T04:29:02.115Z,34.93
2023-03-25T04:31:31.351Z,34.70
2023-03-25T04:33:59.574Z,34.20
2023-03-25T04:36:29.603Z,34.05
2023-03-25T04:38:57.237Z,34.50
2023-03-25T04:41:24.511Z,33.85
2023-03-25T04:43:51.871Z,33.36
2023-03-25T04:46:19.332Z,32.95
2023-03-25T04:48:47.784Z,33.82
2023-03-25T04:51:15.771Z,34.08
2023-03-25T04:53:43.384Z,33.97
2023-03-25T04:56:16.510Z,32.58
2023-03-25T04:58:44.408Z,33.39
2023-03-25T05:01:32.831Z,31.09
2023-03-25T05:04:06.788Z,33.19
2023-03-25T05:06:35.005Z,33.48
2023-03-25T05:09:04.715Z,32.42
2023-03-25T05:11:33.013Z,32.41
2023-03-25T05:14:00.832Z,30.48
2023-03-25T05:16:28.116Z,30.41
2023-03-25T05:18:55.356Z,29.15
2023-03-25T05:21:22.585Z,30.87
2023-03-25T05:23:49.856Z,31.92
2023-03-25T05:26:17.083Z,26.86
2023-03-25T05:28:44.270Z,26.15
2023-03-25T05:31:11.544Z,28.48
2023-03-25T05:33:43.599Z,27.21
2023-03-25T05:36:12.041Z,30.31
2023-03-25T05:38:42.148Z,29.01
2023-03-25T05:41:17.039Z,30.62
2023-03-25T05:43:48.394Z,30.23
2023-03-25T05:46:16.089Z,29.21
2023-03-25T05:48:43.355Z,26.29
2023-03-25T05:51:18.047Z,26.04
2023-03-25T05:53:50.059Z,29.32
2023-03-25T05:56:18.411Z,24.66
2023-03-25T05:58:46.070Z,28.19
2023-03-25T06:01:31.297Z,28.38
2023-03-25T06:04:03.673Z,28.97
2023-03-25T06:06:34.476Z,25.06
2023-03-25T06:09:02.608Z,26.21
2023-03-25T06:11:30.005Z,26.80
2023-03-25T06:13:57.428Z,27.98
2023-03-25T06:16:30.274Z,28.02
2023-03-25T06:19:00.311Z,26.27
2023-03-25T06:21:33.584Z,25.58
2023-03-25T06:24:04.191Z,26.53
2023-03-25T06:26:33.046Z,27.35
2023-03-25T06:29:02.859Z,24.68
2023-03-25T06:31:34.489Z,21.58
2023-03-25T06:34:01.968Z,25.69
2023-03-25T06:36:29.798Z,24.39
2023-03-25T06:38:58.683Z,19.88
2023-03-25T06:41:26.422Z,23.67
2023-03-25T06:44:05.707Z,19.67
2023-03-25T06:47:11.200Z,23.13
2023-03-25T06:49:58.711Z,19.09
2023-03-25T06:52:26.058Z,22.52
2023-03-25T06:54:53.299Z,19.66
2023-03-25T06:57:20.563Z,22.02
2023-03-25T06:59:48.625Z,21.93
2023-03-25T07:02:16.002Z,21.96
2023-03-25T07:04:43.308Z,22.14
2023-03-25T07:07:10.834Z,21.92
2023-03-25T07:09:38.054Z,20.17
2023-03-25T07:12:07.743Z,19.99
2023-03-25T07:14:36.460Z,21.24
2023-03-25T07:17:03.731Z,21.56
2023-03-25T07:19:31.315Z,21.63
2023-03-25T07:21:58.548Z,21.64
2023-03-25T07:24:25.936Z,19.50
2023-03-25T07:26:53.210Z,21.88
2023-03-25T07:29:25.267Z,21.31
2023-03-25T07:31:52.696Z,21.87
2023-03-25T07:34:19.883Z,21.39
2023-03-25T07:36:47.233Z,20.78
2023-03-25T07:39:14.603Z,19.19
2023-03-25T07:41:43.362Z,18.28
2023-03-25T07:44:21.784Z,21.47
2023-03-25T07:46:50.209Z,21.55
2023-03-25T07:49:17.591Z,21.63
2023-03-25T07:51:45.044Z,20.24
2023-03-25T07:54:12.374Z,20.56
2023-03-25T07:56:39.605Z,18.87
2023-03-25T07:59:07.072Z,21.71
2023-03-25T08:01:34.344Z,21.22
2023-03-25T08:04:01.663Z,21.62
2023-03-25T08:06:28.966Z,21.75
2023-03-25T08:08:56.329Z,21.31
2023-03-25T08:11:23.589Z,20.32
2023-03-25T08:13:50.844Z,21.60
2023-03-25T08:16:18.332Z,22.01
2023-03-25T08:18:53.265Z,21.89
2023-03-25T08:21:25.854Z,21.90
2023-03-25T08:23:58.705Z,21.82
2023-03-25T08:26:27.276Z,21.80
2023-03-25T08:28:58.210Z,22.46
2023-03-25T08:31:26.107Z,22.23
2023-03-25T08:33:53.405Z,22.32
2023-03-25T08:36:23.434Z,22.17
2023-03-25T08:38:50.990Z,22.75
2023-03-25T08:41:18.606Z,23.01
2023-03-25T08:43:46.123Z,23.31
2023-03-25T08:46:13.676Z,23.38
2023-03-25T08:48:41.051Z,23.71
2023-03-25T08:51:08.651Z,23.78
2023-03-25T08:53:36.204Z,23.97
2023-03-25T08:56:05.987Z,24.28
2023-03-25T08:58:33.287Z,24.42
2023-03-25T09:01:00.613Z,24.38
2023-03-25T09:03:27.994Z,24.53
2023-03-25T09:05:55.348Z,24.32
2023-03-25T09:08:22.774Z,24.48
2023-03-25T09:10:50.166Z,24.57
2023-03-25T09:13:17.469Z,24.92
2023-03-25T09:15:46.895Z,24.77
2023-03-25T09:18:14.338Z,25.06
2023-03-25T09:20:48.079Z,25.85
2023-03-25T09:23:16.247Z,25.71
2023-03-25T09:25:43.503Z,25.59
2023-03-25T09:28:10.808Z,25.38
2023-03-25T09:30:38.123Z,25.69
2023-03-25T09:33:06.107Z,26.58
2023-03-25T09:35:33.592Z,26.55
2023-03-25T09:38:00.896Z,26.21
2023-03-25T09:40:28.537Z,26.62
2023-03-25T09:42:55.788Z,26.17
2023-03-25T09:45:26.702Z,26.20
2023-03-25T09:47:57.100Z,26.10
2023-03-25T09:50:25.519Z,26.06
2023-03-25T09:52:59.060Z,26.44
2023-03-25T09:55:32.724Z,26.49
2023-03-25T10:06:09.235Z,26.89
2023-03-25T10:09:01.153Z,26.96
2023-03-25T10:11:43.548Z,26.79
2023-03-25T10:15:26.758Z,26.86
2023-03-25T10:18:09.333Z,26.97
2023-03-25T10:20:55.945Z,27.84
2023-03-25T10:23:32.390Z,27.52
2023-03-25T10:26:02.104Z,27.47
2023-03-25T10:28:33.836Z,27.17
2023-03-25T10:31:02.658Z,27.59
2023-03-25T10:33:36.343Z,28.66
2023-03-25T10:36:06.579Z,28.53
2023-03-25T10:38:35.278Z,29.93
2023-03-25T10:41:05.485Z,30.04
2023-03-25T10:43:34.984Z,29.37
2023-03-25T10:46:08.298Z,29.69
2023-03-25T10:48:36.080Z,30.96
2023-03-25T10:51:11.402Z,29.03
2023-03-25T10:53:41.158Z,29.21
2023-03-25T10:56:19.315Z,28.79
2023-03-25T10:58:48.649Z,28.84
2023-03-25T11:01:18.037Z,29.00
2023-03-25T11:03:46.531Z,30.71
2023-03-25T11:06:29.877Z,29.32
2023-03-25T11:09:14.283Z,30.89
2023-03-25T11:11:42.120Z,29.55
2023-03-25T11:14:10.896Z,30.24
2023-03-25T11:16:43.446Z,30.84
2023-03-25T11:19:16.596Z,29.56
2023-03-25T11:21:46.627Z,29.99
2023-03-25T11:24:15.158Z,30.81
2023-03-25T11:26:42.613Z,31.88
2023-03-25T11:29:13.540Z,30.85
2023-03-25T11:31:42.319Z,30.81
2023-03-25T11:34:09.623Z,30.69
2023-03-25T11:36:38.147Z,30.67
2023-03-25T11:39:18.703Z,31.03
2023-03-25T11:41:46.166Z,30.67
2023-03-25T11:44:22.736Z,31.00
2023-03-25T11:46:52.514Z,30.96
2023-03-25T11:49:23.143Z,32.11
2023-03-25T11:52:05.708Z,33.31
2023-03-25T11:54:35.072Z,31.54
2023-03-25T11:57:04.852Z,32.19
2023-03-25T11:59:52.240Z,31.09
2023-03-25T12:02:24.379Z,31.27
2023-03-25T12:05:01.349Z,31.32
2023-03-25T12:07:29.942Z,31.37
2023-03-25T12:09:58.396Z,34.12
2023-03-25T12:12:43.057Z,31.69
2023-03-25T12:15:16.828Z,32.29
2023-03-25T12:17:53.377Z,31.70
2023-03-25T12:20:39.458Z,32.54
2023-03-25T12:23:27.282Z,32.61
2023-03-25T12:25:54.875Z,31.99
2023-03-25T12:28:32.664Z,33.70
2023-03-25T12:31:26.333Z,32.28
2023-03-25T12:34:02.461Z,32.05
2023-03-25T12:36:32.609Z,32.32
2023-03-25T12:39:18.707Z,32.46
2023-03-25T12:42:22.168Z,32.33
2023-03-25T12:45:07.968Z,35.22
2023-03-25T12:47:39.913Z,32.69
2023-03-25T12:50:13.138Z,32.99
2023-03-25T12:52:43.359Z,32.92
2023-03-25T12:55:21.801Z,35.65
2023-03-25T12:58:00.155Z,36.47
2023-03-25T13:00:27.519Z,37.00
2023-03-25T13:03:13.483Z,34.29
2023-03-25T13:05:49.918Z,34.04
2023-03-25T13:08:21.373Z,33.71
2023-03-25T13:10:52.514Z,33.98
2023-03-25T13:13:24.520Z,33.61
2023-03-25T13:16:12.236Z,34.37
2023-03-25T13:18:44.861Z,34.11
2023-03-25T13:21:24.222Z,36.83
2023-03-25T13:24:11.720Z,39.87
2023-03-25T13:26:40.771Z,39.68
2023-03-25T13:29:42.119Z,40.99
2023-03-25T13:32:22.857Z,41.37
2023-03-25T13:34:50.442Z,42.72
2023-03-25T13:37:26.408Z,44.73
2023-03-25T13:39:56.299Z,44.21
2023-03-25T13:42:28.183Z,44.64
2023-03-25T13:44:57.637Z,43.80
2023-03-25T13:47:31.758Z,43.71
2023-03-25T13:50:24.163Z,38.03
2023-03-25T13:52:55.145Z,37.31
2023-03-25T13:55:25.325Z,38.05
2023-03-25T13:57:58.190Z,43.37
2023-03-25T14:00:37.505Z,45.20
2023-03-25T14:03:23.176Z,43.44
2023-03-25T14:05:53.361Z,45.24
2023-03-25T14:08:33.189Z,43.73
2023-03-25T14:11:19.396Z,45.10
2023-03-25T14:14:04.931Z,44.28
2023-03-25T14:16:40.341Z,43.11
2023-03-25T14:19:11.825Z,40.23
2023-03-25T14:21:39.795Z,46.11
2023-03-25T14:24:12.596Z,45.72
2023-03-25T14:27:03.441Z,46.15
2023-03-25T14:29:37.044Z,46.37
2023-03-25T14:32:33.953Z,45.36
2023-03-25T14:35:19.956Z,44.03
2023-03-25T14:37:48.797Z,46.07
2023-03-25T14:41:02.288Z,46.54
2023-03-25T14:43:46.555Z,46.43
2023-03-25T14:46:14.770Z,47.38
2023-03-25T14:48:46.265Z,45.72
2023-03-25T14:51:28.967Z,46.09
2023-03-25T14:54:05.182Z,45.57
2023-03-25T14:56:36.936Z,46.22
2023-03-25T14:59:14.338Z,45.17
2023-03-25T15:01:42.415Z,46.76
2023-03-25T15:04:13.358Z,46.51
2023-03-25T15:06:41.064Z,45.84
2023-03-25T15:09:11.416Z,45.26
2023-03-25T15:11:45.958Z,46.69
2023-03-25T15:14:19.819Z,46.16
2023-03-25T15:16:50.072Z,44.60
2023-03-25T15:19:20.819Z,46.03
2023-03-25T15:22:14.577Z,45.81
2023-03-25T15:24:49.918Z,45.04
2023-03-25T15:27:17.170Z,46.43
2023-03-25T15:29:44.368Z,45.63
2023-03-25T15:32:20.941Z,46.71
2023-03-25T15:35:03.912Z,46.88
2023-03-25T15:37:49.991Z,46.43
2023-03-25T15:40:20.100Z,45.04
2023-03-25T15:42:56.724Z,44.12
2023-03-25T15:45:42.744Z,44.18
2023-03-25T15:48:22.308Z,46.87
2023-03-25T15:50:50.172Z,46.71
2023-03-25T15:53:42.895Z,47.41
2023-03-25T15:56:13.594Z,46.52
2023-03-25T15:58:46.334Z,46.98
2023-03-25T16:01:22.878Z,45.66
2023-03-25T16:04:13.509Z,46.38
2023-03-25T16:06:42.325Z,46.75
2023-03-25T16:09:20.922Z,47.35
2023-03-25T16:11:48.338Z,43.71
2023-03-25T16:14:17.287Z,42.95
2023-03-25T16:16:54.545Z,42.98
2023-03-25T16:19:27.596Z,43.97
2023-03-25T16:21:55.948Z,47.48
2023-03-25T16:24:25.688Z,48.03
2023-03-25T16:26:53.111Z,47.97
2023-03-25T16:29:25.069Z,48.12
2023-03-25T16:31:52.287Z,49.31
2023-03-25T16:34:19.820Z,44.22
2023-03-25T16:36:48.685Z,44.96
2023-03-25T16:39:17.307Z,43.07
2023-03-25T16:41:46.164Z,45.83
2023-03-25T16:44:18.163Z,47.73
2023-03-25T16:46:48.297Z,47.26
2023-03-25T16:49:20.706Z,46.92
2023-03-25T16:51:48.512Z,47.88
2023-03-25T16:54:22.540Z,47.56
2023-03-25T16:56:51.518Z,46.86
2023-03-25T16:59:42.472Z,46.40
2023-03-25T17:02:30.044Z,47.02
2023-03-25T17:05:44.516Z,47.90
2023-03-25T17:08:26.386Z,47.71
2023-03-25T17:11:05.125Z,46.86
2023-03-25T17:13:53.233Z,48.90
2023-03-25T17:17:01.833Z,48.05
2023-03-25T17:19:28.797Z,49.86
2023-03-25T17:22:20.386Z,49.17
2023-03-25T17:25:39.753Z,49.16
2023-03-25T17:28:57.258Z,46.26
2023-03-25T17:31:30.983Z,47.21
2023-03-25T17:34:15.769Z,45.12
2023-03-25T17:36:45.936Z,44.13
2023-03-25T17:39:18.546Z,44.70
2023-03-25T17:41:46.467Z,44.09
2023-03-25T17:44:17.736Z,45.22
2023-03-25T17:46:45.298Z,45.21
2023-03-25T17:49:21.737Z,48.10
2023-03-25T17:51:49.073Z,48.24
2023-03-25T17:54:16.398Z,45.18
2023-03-25T17:56:43.752Z,46.53
2023-03-25T17:59:16.934Z,49.67
2023-03-25T18:01:45.525Z,48.84
2023-03-25T18:04:15.068Z,48.92
2023-03-25T18:06:43.347Z,46.63
2023-03-25T18:09:22.228Z,48.72
2023-03-25T18:11:54.323Z,47.92
2023-03-25T18:14:22.339Z,48.85
2023-03-25T18:16:49.752Z,48.91
2023-03-25T18:19:23.049Z,46.88
2023-03-25T18:21:50.458Z,47.20
2023-03-25T18:24:17.835Z,44.17
2023-03-25T18:26:45.505Z,47.38
2023-03-25T18:29:20.577Z,47.85
2023-03-25T18:31:48.485Z,49.01
2023-03-25T18:34:15.968Z,48.10
2023-03-25T18:36:44.156Z,47.42
2023-03-25T18:39:16.166Z,46.67
2023-03-25T18:41:43.791Z,44.96
2023-03-25T18:44:11.603Z,44.10
2023-03-25T18:46:39.538Z,43.00
2023-03-25T18:49:14.531Z,43.74
2023-03-25T18:51:42.969Z,46.82
2023-03-25T18:54:10.161Z,46.24
2023-03-25T18:56:37.506Z,46.83
2023-03-25T18:59:04.809Z,48.09
2023-03-25T19:01:32.167Z,48.90
2023-03-25T19:04:03.057Z,48.20
2023-03-25T19:06:30.786Z,48.13
2023-03-25T19:08:57.989Z,47.93
2023-03-25T19:11:25.853Z,47.91
2023-03-25T19:13:53.176Z,48.23
2023-03-25T19:16:21.161Z,46.98
2023-03-25T19:18:48.626Z,45.01
2023-03-25T19:21:17.949Z,45.12
2023-03-25T19:23:45.390Z,46.11
2023-03-25T19:26:13.704Z,46.31
2023-03-25T19:28:41.700Z,47.27
2023-03-25T19:31:09.485Z,44.40
2023-03-25T19:33:36.776Z,46.33
2023-03-25T19:36:04.706Z,46.50
2023-03-25T19:38:33.215Z,46.65
2023-03-25T19:41:01.995Z,46.33
2023-03-25T19:43:29.606Z,45.90
2023-03-25T19:45:57.225Z,45.71
2023-03-25T19:48:24.620Z,45.78
2023-03-25T19:50:53.852Z,45.32
2023-03-25T19:53:21.744Z,44.84
2023-03-25T19:55:49.144Z,45.87
2023-03-25T19:58:18.091Z,44.58
2023-03-25T20:00:47.395Z,44.70
2023-03-25T20:03:14.993Z,44.32
2023-03-25T20:05:42.493Z,45.76
2023-03-25T20:08:09.914Z,45.35
2023-03-25T20:10:38.330Z,45.53
2023-03-25T20:13:05.995Z,45.55
2023-03-25T20:15:33.469Z,44.45
2023-03-25T20:18:00.907Z,43.51
2023-03-25T20:20:28.336Z,44.86
2023-03-25T20:22:56.190Z,45.12
2023-03-25T20:25:23.453Z,45.36
2023-03-25T20:27:50.712Z,43.73
2023-03-25T20:30:19.184Z,43.56
2023-03-25T20:32:48.092Z,44.67
2023-03-25T20:35:16.927Z,44.84
2023-03-25T20:37:45.085Z,44.88
2023-03-25T20:40:14.598Z,43.62
2023-03-25T20:42:42.951Z,44.30
2023-03-25T20:45:12.022Z,44.68
2023-03-25T20:47:39.345Z,43.80
2023-03-25T20:50:07.469Z,43.50
2023-03-25T20:52:36.314Z,44.62
2023-03-25T20:55:03.772Z,44.25
2023-03-25T20:57:31.054Z,44.53
2023-03-25T20:59:58.476Z,44.46
2023-03-25T21:02:25.926Z,45.18
2023-03-25T21:04:55.421Z,44.18
2023-03-25T21:07:24.116Z,43.58
2023-03-25T21:09:51.436Z,45.25
2023-03-25T21:12:18.600Z,45.35
2023-03-25T21:14:45.797Z,42.68
2023-03-25T21:17:13.053Z,42.29
2023-03-25T21:19:40.484Z,43.64
2023-03-25T21:22:07.881Z,42.87
2023-03-25T21:24:36.235Z,42.28
2023-03-25T21:27:03.649Z,42.10
2023-03-25T21:29:30.976Z,42.45
2023-03-25T21:31:58.365Z,41.92
2023-03-25T21:34:25.846Z,41.77
2023-03-25T21:36:53.036Z,41.23
2023-03-25T21:39:20.356Z,41.34
2023-03-25T21:41:47.587Z,43.94
2023-03-25T21:44:16.745Z,43.54
2023-03-25T21:46:44.015Z,41.99
2023-03-25T21:49:13.607Z,41.47
2023-03-25T21:51:43.094Z,40.94
2023-03-25T21:54:11.806Z,41.35
2023-03-25T21:56:40.243Z,41.46
2023-03-25T21:59:07.507Z,41.18
2023-03-25T22:01:36.154Z,41.13
2023-03-25T22:04:04.214Z,41.39
2023-03-25T22:06:33.557Z,41.29
2023-03-25T22:09:05.665Z,41.21
2023-03-25T22:11:34.448Z,41.14
2023-03-25T22:14:02.244Z,41.43
2023-03-25T22:16:29.632Z,40.84
2023-03-25T22:18:57.008Z,41.08
2023-03-25T22:21:26.061Z,41.07
2023-03-25T22:23:55.097Z,41.09
2023-03-25T22:26:23.540Z,41.10
2023-03-25T22:28:54.642Z,41.98
2023-03-25T22:31:26.281Z,41.25
2023-03-25T22:34:04.014Z,42.59
2023-03-25T22:36:32.743Z,41.33
2023-03-25T22:39:00.393Z,42.15
2023-03-25T22:41:28.183Z,41.16
2023-03-25T22:43:56.153Z,41.06
2023-03-25T22:46:23.843Z,41.17
2023-03-25T22:48:51.458Z,41.52
2023-03-25T22:51:19.790Z,42.70
2023-03-25T22:53:47.278Z,41.41
2023-03-25T22:56:14.803Z,41.27
2023-03-25T22:58:42.088Z,41.07
2023-03-25T23:01:24.018Z,41.32
2023-03-25T23:03:52.078Z,40.85
2023-03-25T23:06:20.115Z,41.17
2023-03-25T23:08:48.053Z,41.25
2023-03-25T23:11:17.438Z,40.94
2023-03-25T23:13:46.115Z,41.50
2023-03-25T23:16:14.730Z,41.23
2023-03-25T23:18:42.368Z,40.67
2023-03-25T23:21:13.936Z,41.14
2023-03-25T23:23:52.588Z,41.69
2023-03-25T23:26:25.021Z,41.09
2023-03-25T23:28:53.425Z,41.32
2023-03-25T23:31:28.748Z,41.11
2023-03-25T23:33:57.793Z,41.48
2023-03-25T23:36:25.777Z,41.55
2023-03-25T23:38:53.905Z,41.44
2023-03-25T23:41:26.082Z,41.16
2023-03-25T23:43:54.100Z,40.92
2023-03-25T23:46:22.089Z,41.30
2023-03-25T23:48:49.657Z,41.43
2023-03-25T23:51:18.357Z,41.44
2023-03-25T23:53:47.105Z,41.55
2023-03-25T23:56:15.251Z,41.88
2023-03-25T23:58:42.504Z,42.09
